ITY2092 LIRF-LIML
Flight info
| Callsign | ITY2092 |
|---|---|
| Flight time | N/A |
| Altitude | 34000 |
| Route | GILIO DCT KARDU DCT EMBOS DCT GIPIX/N0330F180 DCT KALMO |
| Aircraft | A20N/M-SDE2E3FGHIRWXY/LB1 |
Departure
| Time | 2026-05-01 15:01 |
|---|---|
| Airport | Rome–Fiumicino Leonardo da Vinci International Airport (LIRF) |
Arrival
| Time | N/A |
|---|---|
| Airport | Milano Linate Airport (LIML) |
| Time | Latitude | Longitude | Altitude | Speed | Heading |
|---|---|---|---|---|---|
| 2026-05-01 14:22 | 41.79760 | 12.25500 | 17 ft | 0 kts | 115° |
| 2026-05-01 14:48 | 41.79772 | 12.25466 | 17 ft | 2 kts | 115° |
| 2026-05-01 14:48 | 41.79778 | 12.25450 | 17 ft | 1 kts | 105° |
| 2026-05-01 14:48 | 41.79763 | 12.25428 | 17 ft | 2 kts | 19° |
| 2026-05-01 14:49 | 41.79752 | 12.25421 | 17 ft | 0 kts | 27° |
| 2026-05-01 14:50 | 41.79754 | 12.25423 | 17 ft | 1 kts | 27° |
| 2026-05-01 14:51 | 41.79779 | 12.25439 | 17 ft | 6 kts | 25° |
| 2026-05-01 14:51 | 41.79895 | 12.25512 | 17 ft | 12 kts | 25° |
| 2026-05-01 14:52 | 41.80018 | 12.25554 | 17 ft | 8 kts | 299° |
| 2026-05-01 14:52 | 41.80044 | 12.25480 | 17 ft | 9 kts | 295° |
| 2026-05-01 14:52 | 41.80100 | 12.25322 | 17 ft | 7 kts | 295° |
| 2026-05-01 14:53 | 41.80124 | 12.25252 | 17 ft | 7 kts | 295° |
| 2026-05-01 14:53 | 41.80149 | 12.25182 | 17 ft | 9 kts | 295° |
| 2026-05-01 14:53 | 41.80182 | 12.25089 | 16 ft | 12 kts | 294° |
| 2026-05-01 14:53 | 41.80204 | 12.24957 | 16 ft | 15 kts | 270° |
| 2026-05-01 14:54 | 41.80185 | 12.24802 | 16 ft | 18 kts | 252° |
| 2026-05-01 14:54 | 41.80139 | 12.24634 | 16 ft | 19 kts | 250° |
| 2026-05-01 14:54 | 41.80092 | 12.24461 | 16 ft | 19 kts | 250° |
| 2026-05-01 14:54 | 41.80045 | 12.24293 | 16 ft | 19 kts | 249° |
| 2026-05-01 14:55 | 41.79999 | 12.24123 | 16 ft | 19 kts | 250° |
| 2026-05-01 14:55 | 41.79973 | 12.23961 | 16 ft | 17 kts | 250° |
| 2026-05-01 14:55 | 41.79930 | 12.23807 | 16 ft | 17 kts | 250° |
| 2026-05-01 14:55 | 41.79892 | 12.23684 | 15 ft | 10 kts | 224° |
| 2026-05-01 14:56 | 41.79820 | 12.23691 | 15 ft | 11 kts | 161° |
| 2026-05-01 14:56 | 41.79731 | 12.23729 | 16 ft | 15 kts | 162° |
| 2026-05-01 14:56 | 41.79621 | 12.23774 | 16 ft | 17 kts | 162° |
| 2026-05-01 14:56 | 41.79495 | 12.23827 | 16 ft | 20 kts | 162° |
| 2026-05-01 14:57 | 41.79357 | 12.23885 | 16 ft | 21 kts | 162° |
| 2026-05-01 14:57 | 41.79079 | 12.24001 | 16 ft | 20 kts | 162° |
| 2026-05-01 14:57 | 41.78942 | 12.24059 | 16 ft | 20 kts | 163° |
| 2026-05-01 14:58 | 41.78808 | 12.24114 | 15 ft | 20 kts | 162° |
| 2026-05-01 14:58 | 41.78673 | 12.24171 | 15 ft | 20 kts | 162° |
| 2026-05-01 14:58 | 41.78538 | 12.24227 | 15 ft | 20 kts | 162° |
| 2026-05-01 14:58 | 41.78406 | 12.24283 | 15 ft | 20 kts | 162° |
| 2026-05-01 14:59 | 41.78288 | 12.24332 | 15 ft | 13 kts | 166° |
| 2026-05-01 14:59 | 41.78217 | 12.24283 | 15 ft | 13 kts | 252° |
| 2026-05-01 14:59 | 41.78199 | 12.24161 | 15 ft | 12 kts | 283° |
| 2026-05-01 14:59 | 41.78242 | 12.24054 | 15 ft | 13 kts | 301° |
| 2026-05-01 15:00 | 41.78529 | 12.23903 | 15 ft | 75 kts | 343° |
| 2026-05-01 15:00 | 41.79268 | 12.23593 | 15 ft | 145 kts | 342° |
| 2026-05-01 15:00 | 41.80356 | 12.23164 | 411 ft | 167 kts | 345° |
| 2026-05-01 15:01 | 41.81419 | 12.22723 | 1265 ft | 162 kts | 346° |
| 2026-05-01 15:01 | 41.82460 | 12.22065 | 1842 ft | 179 kts | 320° |
| 2026-05-01 15:01 | 41.83062 | 12.20524 | 2363 ft | 204 kts | 280° |
| 2026-05-01 15:01 | 41.82771 | 12.18610 | 2893 ft | 225 kts | 243° |
| 2026-05-01 15:02 | 41.81918 | 12.16776 | 3543 ft | 239 kts | 235° |
| 2026-05-01 15:02 | 41.81604 | 12.16184 | 3822 ft | 240 kts | 237° |
| 2026-05-01 15:02 | 41.80976 | 12.12689 | 5300 ft | 238 kts | 283° |
| 2026-05-01 15:02 | 41.81374 | 12.10574 | 6176 ft | 239 kts | 290° |
| 2026-05-01 15:03 | 41.81867 | 12.08411 | 6857 ft | 253 kts | 290° |
| 2026-05-01 15:03 | 41.82361 | 12.06081 | 7483 ft | 269 kts | 289° |
| 2026-05-01 15:03 | 41.82850 | 12.03605 | 8112 ft | 285 kts | 292° |
| 2026-05-01 15:03 | 41.83723 | 12.01225 | 8928 ft | 285 kts | 309° |
| 2026-05-01 15:04 | 41.84858 | 11.99061 | 9808 ft | 287 kts | 312° |
| 2026-05-01 15:04 | 41.86028 | 11.96902 | 10692 ft | 291 kts | 312° |
| 2026-05-01 15:04 | 41.87233 | 11.94633 | 11268 ft | 306 kts | 311° |
| 2026-05-01 15:04 | 41.88446 | 11.92284 | 12046 ft | 312 kts | 310° |
| 2026-05-01 15:05 | 41.89663 | 11.89873 | 12892 ft | 315 kts | 309° |
| 2026-05-01 15:05 | 41.90875 | 11.87434 | 13763 ft | 317 kts | 310° |
| 2026-05-01 15:05 | 41.92086 | 11.84974 | 14587 ft | 320 kts | 310° |
| 2026-05-01 15:05 | 41.93306 | 11.82494 | 15358 ft | 324 kts | 311° |
| 2026-05-01 15:06 | 41.94546 | 11.79964 | 16124 ft | 327 kts | 311° |
| 2026-05-01 15:06 | 41.95799 | 11.77403 | 16848 ft | 331 kts | 311° |
| 2026-05-01 15:06 | 41.97069 | 11.74804 | 17576 ft | 335 kts | 312° |
| 2026-05-01 15:06 | 41.98344 | 11.72191 | 18347 ft | 336 kts | 312° |
| 2026-05-01 15:07 | 41.99613 | 11.69586 | 19010 ft | 340 kts | 313° |
| 2026-05-01 15:07 | 42.00923 | 11.66906 | 19661 ft | 344 kts | 313° |
| 2026-05-01 15:07 | 42.02237 | 11.64209 | 20331 ft | 347 kts | 313° |
| 2026-05-01 15:07 | 42.03544 | 11.61516 | 20974 ft | 350 kts | 314° |
| 2026-05-01 15:08 | 42.04886 | 11.58765 | 21627 ft | 353 kts | 314° |
| 2026-05-01 15:08 | 42.06230 | 11.56002 | 22311 ft | 355 kts | 313° |
| 2026-05-01 15:08 | 42.07575 | 11.53229 | 22914 ft | 359 kts | 314° |
| 2026-05-01 15:08 | 42.08953 | 11.50386 | 23514 ft | 363 kts | 313° |
| 2026-05-01 15:09 | 42.10321 | 11.47560 | 24125 ft | 365 kts | 313° |
| 2026-05-01 15:09 | 42.11704 | 11.44709 | 24782 ft | 367 kts | 313° |
| 2026-05-01 15:09 | 42.13096 | 11.41830 | 25405 ft | 369 kts | 313° |
| 2026-05-01 15:09 | 42.14493 | 11.38936 | 25989 ft | 371 kts | 312° |
| 2026-05-01 15:10 | 42.15894 | 11.36028 | 26525 ft | 374 kts | 312° |
| 2026-05-01 15:10 | 42.18749 | 11.30097 | 27557 ft | 380 kts | 311° |
| 2026-05-01 15:10 | 42.20183 | 11.27109 | 28067 ft | 382 kts | 311° |
| 2026-05-01 15:11 | 42.21625 | 11.24108 | 28628 ft | 383 kts | 311° |
| 2026-05-01 15:11 | 42.24519 | 11.18063 | 29520 ft | 387 kts | 311° |
| 2026-05-01 15:11 | 42.25975 | 11.15022 | 29956 ft | 388 kts | 310° |
| 2026-05-01 15:12 | 42.27437 | 11.11958 | 30387 ft | 390 kts | 310° |
| 2026-05-01 15:12 | 42.30391 | 11.05771 | 31097 ft | 394 kts | 310° |
| 2026-05-01 15:12 | 42.31860 | 11.02692 | 31464 ft | 395 kts | 310° |
| 2026-05-01 15:13 | 42.37125 | 10.94336 | 32648 ft | 384 kts | 323° |
| 2026-05-01 15:14 | 42.41312 | 10.89985 | 33276 ft | 381 kts | 331° |
| 2026-05-01 15:14 | 42.43601 | 10.88163 | 33588 ft | 381 kts | 335° |
| 2026-05-01 15:14 | 42.48349 | 10.84961 | 34180 ft | 382 kts | 336° |
| 2026-05-01 15:15 | 42.57916 | 10.78622 | 34239 ft | 385 kts | 336° |
| 2026-05-01 15:16 | 42.67573 | 10.72220 | 34241 ft | 389 kts | 336° |
| 2026-05-01 15:18 | 42.79682 | 10.64152 | 34248 ft | 388 kts | 336° |
| 2026-05-01 15:19 | 42.89419 | 10.57648 | 34241 ft | 391 kts | 336° |
| 2026-05-01 15:19 | 42.96742 | 10.52736 | 34249 ft | 393 kts | 336° |
| 2026-05-01 15:20 | 43.04074 | 10.47808 | 34246 ft | 392 kts | 336° |
| 2026-05-01 15:21 | 43.08958 | 10.44516 | 34247 ft | 393 kts | 336° |
| 2026-05-01 15:21 | 43.13883 | 10.41196 | 34250 ft | 395 kts | 336° |
| 2026-05-01 15:22 | 43.21284 | 10.36188 | 34250 ft | 396 kts | 336° |
| 2026-05-01 15:22 | 43.26194 | 10.32856 | 34252 ft | 396 kts | 335° |
| 2026-05-01 15:23 | 43.31149 | 10.29492 | 34252 ft | 397 kts | 335° |
| 2026-05-01 15:23 | 43.36074 | 10.26136 | 34256 ft | 398 kts | 335° |
| 2026-05-01 15:24 | 43.41019 | 10.22769 | 34257 ft | 398 kts | 335° |
| 2026-05-01 15:24 | 43.45988 | 10.19407 | 34256 ft | 400 kts | 338° |
| 2026-05-01 15:25 | 43.51207 | 10.16784 | 34257 ft | 399 kts | 342° |
| 2026-05-01 15:25 | 43.56439 | 10.14269 | 34260 ft | 399 kts | 341° |
| 2026-05-01 15:26 | 43.61686 | 10.11713 | 34264 ft | 400 kts | 341° |
| 2026-05-01 15:26 | 43.66917 | 10.09147 | 34105 ft | 395 kts | 341° |
| 2026-05-01 15:27 | 43.69457 | 10.07895 | 33560 ft | 393 kts | 342° |
| 2026-05-01 15:27 | 43.72024 | 10.06626 | 32897 ft | 393 kts | 342° |
| 2026-05-01 15:27 | 43.74582 | 10.05364 | 32290 ft | 392 kts | 342° |
| 2026-05-01 15:28 | 43.79710 | 10.02826 | 31005 ft | 391 kts | 342° |
| 2026-05-01 15:28 | 43.82272 | 10.01556 | 30518 ft | 387 kts | 343° |
| 2026-05-01 15:28 | 43.84776 | 10.00314 | 30014 ft | 383 kts | 343° |
| 2026-05-01 15:29 | 43.89727 | 9.97859 | 28952 ft | 376 kts | 343° |
| 2026-05-01 15:29 | 43.92163 | 9.96650 | 28419 ft | 373 kts | 343° |
| 2026-05-01 15:29 | 43.97028 | 9.94229 | 27319 ft | 368 kts | 343° |
| 2026-05-01 15:30 | 44.00997 | 9.92252 | 26437 ft | 364 kts | 343° |
| 2026-05-01 15:31 | 44.11159 | 9.87172 | 24179 ft | 353 kts | 343° |
| 2026-05-01 15:31 | 44.15715 | 9.84887 | 23209 ft | 348 kts | 343° |
| 2026-05-01 15:32 | 44.20259 | 9.82606 | 22232 ft | 344 kts | 343° |
| 2026-05-01 15:32 | 44.24699 | 9.80375 | 21284 ft | 340 kts | 343° |
| 2026-05-01 15:33 | 44.31305 | 9.77045 | 19857 ft | 334 kts | 344° |
| 2026-05-01 15:34 | 44.37789 | 9.73771 | 18436 ft | 330 kts | 344° |